Terminal Aerodrome Forecast
Issued by NWS Sterling, VA

Current Version | Previous Version | Text Only | Print | Product List | Glossary Off
Versions: 1 2 3 4 5 6 7 8 9 10 11 12 13 14 15 16 17 18 19 20 21 22 23 24 25

000
FTUS41 KLWX 261134
TAFDCA
TAF
KDCA 261134Z 2612/2712 20007KT P6SM FEW150
     FM261800 20009KT P6SM BKN050
     FM262200 18009KT P6SM VCTS SCT050CB BKN060
     FM270000 16008KT P6SM SCT050 BKN060
     FM271100 20004KT P6SM SCT050 BKN110=

USA.gov is the U.S. government's official web portal to all federal, state and local government web resources and services.